^^
Station Historical Data
Daily Summary for February 22, 2012 Units:  Metric    English   Both
« Previous Day
Next Day »
Daily Weekly Monthly Yearly Custom
  High: Low: Average:
Temperature: 6.3 °C 0 °C 3 °C
Dew Point: 4.3 °C -1.1 °C 1.6 °C
Humidity: 96% 83% 90%
Wind Speed: 4.8km/h 1.6km/h 1.9km/h
Wind Gust: 9.7km/h - -
Wind- - South
Pressure: 1007.3 hPa 997.2 hPa -
Precipitation: 0.8 mm    
Historical Graphs
 
 
Tabular Data for February 22, 2012
Time Temperature Dew Point Pressure Wind Wind Speed Wind Gust Humidity Rainfall Rate (Hourly)
00:09 2 °C -0.4 °C 1007.3 hPa West 1.6 km/h 4.8 km/h 84% 0 mm
00:19 2.1 °C -0.4 °C 1007 hPa Calm   4.8 km/h 84% 0 mm
00:29 1.9 °C -0.5 °C 1007 hPa Calm   3.2 km/h 84% 0 mm
00:39 1.8 °C -0.6 °C 1007 hPa Calm   3.2 km/h 84% 0 mm
00:49 1.9 °C -0.6 °C 1007 hPa West 1.6 km/h 6.4 km/h 84% 0 mm
00:59 1.9 °C -0.7 °C 1007 hPa West 1.6 km/h 8 km/h 83% 0 mm
01:09 1.9 °C -0.7 °C 1007 hPa Calm   8 km/h 83% 0 mm
01:19 1.8 °C -0.7 °C 1007 hPa West 1.6 km/h 8 km/h 83% 0 mm
01:29 1.7 °C -0.8 °C 1006.7 hPa Calm   4.8 km/h 83% 0 mm
01:39 1.7 °C -0.8 °C 1006.7 hPa Calm   6.4 km/h 83% 0 mm
01:49 1.7 °C -0.8 °C 1006.7 hPa Calm   4.8 km/h 83% 0 mm
01:59 1.7 °C -0.8 °C 1006.3 hPa Calm   3.2 km/h 83% 0 mm
02:09 1.6 °C -1 °C 1006.3 hPa Calm   3.2 km/h 83% 0 mm
02:19 1.6 °C -1.1 °C 1006 hPa Calm     83% 0 mm
02:29 1.6 °C -1 °C 1006 hPa Calm   3.2 km/h 83% 0 mm
02:39 1.5 °C -1.1 °C 1005.6 hPa Calm   3.2 km/h 83% 0 mm
02:49 1.5 °C -1.1 °C 1005.6 hPa Calm   1.6 km/h 83% 0 mm
02:59 1.5 °C -0.9 °C 1005.3 hPa Calm   3.2 km/h 84% 0 mm
03:09 1.4 °C -0.9 °C 1005.3 hPa SSW 1.6 km/h 4.8 km/h 84% 0 mm
03:19 1.5 °C -0.9 °C 1005.3 hPa Calm   3.2 km/h 84% 0 mm
03:29 1.7 °C -0.7 °C 1005.3 hPa South 4.8 km/h 9.7 km/h 84% 0 mm
03:39 1.8 °C -0.6 °C 1005.3 hPa SSW 1.6 km/h 9.7 km/h 84% 0 mm
03:49 2 °C -0.4 °C 1005.3 hPa SSW 1.6 km/h 6.4 km/h 84% 0 mm
03:59 2.2 °C -0.2 °C 1005.3 hPa Calm   8 km/h 84% 0 mm
04:09 2.3 °C -0.2 °C 1005.3 hPa SSW 4.8 km/h 9.7 km/h 84% 0 mm
04:19 2.3 °C 0 °C 1005.3 hPa Calm   4.8 km/h 85% 0 mm
04:29 2.1 °C 0 °C 1005 hPa Calm   4.8 km/h 86% 0 mm
04:39 1.9 °C 0.1 °C 1005 hPa Calm     88% 0 mm
04:49 1.7 °C -0.1 °C 1004.6 hPa Calm     88% 0 mm
04:59 1.6 °C -0.1 °C 1004.6 hPa Calm     89% 0 mm
05:09 1.3 °C -0.1 °C 1004.6 hPa Calm     90% 0 mm
05:19 1.3 °C -0.1 °C 1004.3 hPa Calm     90% 0 mm
05:29 1.3 °C 0 °C 1004.3 hPa Calm     91% 0 mm
05:39 1.3 °C 0 °C 1004.6 hPa Calm     91% 0 mm
05:49 1.3 °C 0.2 °C 1004.6 hPa Calm     92% 0 mm
05:59 1.3 °C 0.2 °C 1004.3 hPa Calm     92% 0.3 mm
06:09 1.3 °C 0.3 °C 1004.3 hPa Calm     93% 0 mm
06:19 1.3 °C 0.3 °C 1003.9 hPa Calm     93% 0 mm
06:29 1.3 °C 0.3 °C 1003.9 hPa Calm     93% 0 mm
06:39 1.3 °C 0.3 °C 1003.9 hPa Calm     93% 0 mm
06:49 1.2 °C 0.2 °C 1003.9 hPa Calm     93% 0 mm
06:59 1.3 °C 0.5 °C 1003.9 hPa Calm     94% 0 mm
07:09 1.3 °C 0.5 °C 1003.9 hPa Calm     94% 0 mm
07:19 1.2 °C 0.4 °C 1003.6 hPa Calm     94% 0 mm
07:29 1.1 °C 0.3 °C 1003.3 hPa Calm     94% 0 mm
07:39 1.1 °C 0.3 °C 1003.3 hPa Calm     94% 0 mm
07:49 1.3 °C 0.4 °C 1003.3 hPa Calm   1.6 km/h 94% 0 mm
07:59 1.4 °C 0.7 °C 1002.9 hPa Calm     95% 0 mm
08:09 1.6 °C 0.9 °C 1002.9 hPa Calm   1.6 km/h 95% 0.3 mm
08:19 1.8 °C 1.1 °C 1002.9 hPa Calm     95% 0 mm
08:29 2.1 °C 1.3 °C 1002.6 hPa Calm   6.4 km/h 95% 0 mm
08:39 2.3 °C 1.6 °C 1002.6 hPa South 1.6 km/h 8 km/h 95% 0 mm
08:49 2.5 °C 1.8 °C 1002.6 hPa Calm   4.8 km/h 95% 0 mm
08:59 2.7 °C 1.9 °C 1002.3 hPa South 3.2 km/h 8 km/h 95% 0 mm
09:09 2.9 °C 2.2 °C 1001.9 hPa South 1.6 km/h 6.4 km/h 95% 0 mm
09:19 3.1 °C 2.3 °C 1001.9 hPa South 1.6 km/h 8 km/h 95% 0 mm
09:29 3.3 °C 2.6 °C 1001.6 hPa Calm   4.8 km/h 95% 0 mm
09:39 3.4 °C 2.7 °C 1001.6 hPa Calm   4.8 km/h 95% 0 mm
09:49 3.6 °C 2.9 °C 1001.2 hPa Calm   4.8 km/h 95% 0 mm
09:59 3.6 °C 2.7 °C 1001.2 hPa Calm   3.2 km/h 94% 0 mm
10:09 3.6 °C 2.7 °C 1001.2 hPa Calm   3.2 km/h 94% 0 mm
10:19 3.4 °C 2.6 °C 1001.2 hPa Calm   3.2 km/h 94% 0 mm
10:29 3.6 °C 2.7 °C 1000.9 hPa Calm   3.2 km/h 94% 0 mm
10:39 3.7 °C 2.8 °C 1000.9 hPa Calm   4.8 km/h 94% 0 mm
10:49 3.7 °C 2.8 °C 1000.6 hPa South 1.6 km/h 6.4 km/h 94% 0.3 mm
10:59 3.8 °C 2.9 °C 1000.6 hPa Calm   4.8 km/h 94% 0 mm
11:09 3.7 °C 2.7 °C 1000.6 hPa South 3.2 km/h 8 km/h 93% 0 mm
11:19 3.9 °C 3.1 °C 1000.6 hPa Calm   8 km/h 94% 0 mm
11:29 3.8 °C 2.7 °C 1000.6 hPa SSW 1.6 km/h 8 km/h 93% 0 mm
11:39 3.7 °C 2.7 °C 1000.2 hPa Calm   6.4 km/h 93% 0 mm
11:49 3.8 °C 2.8 °C 1000.2 hPa Calm   4.8 km/h 93% 0 mm
11:59 3.9 °C 2.9 °C 999.9 hPa Calm   3.2 km/h 93% 0 mm
12:09 4.1 °C 3 °C 999.9 hPa Calm   4.8 km/h 93% 0 mm
12:19 4.6 °C 3.4 °C 999.5 hPa Calm   6.4 km/h 92% 0 mm
12:29 4.7 °C 3.3 °C 999.2 hPa ESE 1.6 km/h 6.4 km/h 91% 0 mm
12:39 5 °C 3.5 °C 998.9 hPa SE 1.6 km/h 6.4 km/h 90% 0 mm
12:49 5.1 °C 3.4 °C 998.5 hPa SE 1.6 km/h 6.4 km/h 89% 0 mm
12:59 5.3 °C 3.5 °C 998.9 hPa SE 1.6 km/h 4.8 km/h 88% 0 mm
13:09 5.3 °C 3.5 °C 998.5 hPa SE 1.6 km/h 6.4 km/h 88% 0 mm
13:19 5.6 °C 3.4 °C 998.2 hPa Calm   6.4 km/h 86% 0 mm
13:29 5.8 °C 3.5 °C 998.2 hPa SSE 1.6 km/h 9.7 km/h 85% 0 mm
13:39 6 °C 3.5 °C 998.2 hPa Calm   9.7 km/h 84% 0 mm
13:49 5.9 °C 3.3 °C 998.2 hPa SSE 3.2 km/h 8 km/h 83% 0 mm
13:59 5.9 °C 3.4 °C 998.2 hPa South 1.6 km/h 8 km/h 84% 0 mm
14:09 5.9 °C 3.6 °C 997.9 hPa South 1.6 km/h 8 km/h 85% 0 mm
14:19 6 °C 3.5 °C 997.9 hPa Calm   3.2 km/h 84% 0 mm
14:29 6.2 °C 3.7 °C 997.9 hPa Calm   3.2 km/h 84% 0 mm
14:39 6.3 °C 3.8 °C 997.5 hPa South 1.6 km/h 4.8 km/h 84% 0 mm
14:49 6.2 °C 3.5 °C 997.5 hPa Calm   3.2 km/h 83% 0 mm
14:59 6.3 °C 3.8 °C 997.5 hPa South 1.6 km/h 6.4 km/h 84% 0 mm
15:09 6.2 °C 3.7 °C 997.5 hPa SSW 1.6 km/h 4.8 km/h 84% 0 mm
15:19 6.3 °C 3.9 °C 997.5 hPa SSW 1.6 km/h 6.4 km/h 85% 0 mm
15:29 6.2 °C 3.9 °C 997.5 hPa Calm   4.8 km/h 85% 0 mm
15:39 6.2 °C 3.8 °C 997.9 hPa Calm   3.2 km/h 85% 0 mm
15:49 6.1 °C 3.8 °C 997.9 hPa Calm     85% 0 mm
15:59 6.1 °C 3.9 °C 997.9 hPa Calm   3.2 km/h 86% 0 mm
16:09 6.1 °C 4.1 °C 997.9 hPa South 1.6 km/h 3.2 km/h 87% 0 mm
16:19 5.9 °C 4.1 °C 997.9 hPa Calm     88% 0 mm
16:29 6 °C 4.3 °C 997.9 hPa Calm     89% 0 mm
16:39 6 °C 4.2 °C 997.5 hPa Calm     88% 0 mm
16:49 5.8 °C 4 °C 997.2 hPa Calm     88% 0 mm
16:59 5.7 °C 4.1 °C 997.2 hPa Calm     89% 0 mm
17:09 5.5 °C 3.8 °C 997.2 hPa Calm     89% 0 mm
17:19 5.1 °C 3.5 °C 997.2 hPa Calm     89% 0 mm
17:29 4.8 °C 3.3 °C 997.2 hPa Calm     90% 0 mm
17:39 4.5 °C 3.2 °C 997.5 hPa Calm     91% 0 mm
17:49 4.2 °C 2.9 °C 997.5 hPa Calm     91% 0 mm
17:59 4 °C 2.8 °C 997.5 hPa Calm     92% 0 mm
18:09 3.7 °C 2.6 °C 997.9 hPa Calm     92% 0 mm
18:19 3.5 °C 2.3 °C 997.9 hPa Calm     92% 0 mm
18:29 3.2 °C 2.2 °C 997.9 hPa Calm     93% 0 mm
18:39 2.8 °C 1.8 °C 997.9 hPa Calm     93% 0 mm
18:49 2.7 °C 1.7 °C 997.9 hPa Calm     93% 0 mm
18:59 2.7 °C 1.8 °C 997.9 hPa Calm     94% 0 mm
19:09 2.7 °C 1.8 °C 997.9 hPa Calm     94% 0 mm
19:19 2.7 °C 1.8 °C 997.9 hPa Calm     94% 0 mm
19:29 2.7 °C 1.8 °C 998.2 hPa Calm     94% 0 mm
19:39 2.6 °C 1.9 °C 998.2 hPa Calm     95% 0 mm
19:49 2.6 °C 1.8 °C 998.2 hPa Calm     95% 0 mm
19:59 2.4 °C 1.7 °C 998.2 hPa Calm     95% 0 mm
20:09 2.4 °C 1.7 °C 998.2 hPa Calm     95% 0 mm
20:19 2.4 °C 1.7 °C 998.5 hPa Calm     95% 0 mm
20:29 2.5 °C 1.8 °C 998.5 hPa Calm     95% 0 mm
20:39 2.7 °C 2.2 °C 998.5 hPa Calm     96% 0 mm
20:49 3 °C 2.4 °C 998.9 hPa Calm     96% 0 mm
20:59 3 °C 2.4 °C 998.9 hPa Calm     96% 0 mm
21:09 2.9 °C 2.4 °C 998.9 hPa Calm   1.6 km/h 96% 0 mm
21:19 2.7 °C 2.1 °C 998.9 hPa Calm     96% 0 mm
21:29 2.4 °C 1.9 °C 998.5 hPa Calm     96% 0 mm
21:39 2.3 °C 1.7 °C 998.5 hPa Calm     96% 0 mm
21:49 2.1 °C 1.3 °C 998.5 hPa Calm     95% 0 mm
21:59 1.8 °C 1.1 °C 998.9 hPa Calm   1.6 km/h 95% 0 mm
22:09 1.9 °C 1.3 °C 998.9 hPa Calm     96% 0 mm
22:19 1.8 °C 1.3 °C 998.9 hPa Calm     96% 0 mm
22:29 1.8 °C 1.2 °C 998.9 hPa Calm     96% 0 mm
22:39 1.6 °C 1.1 °C 998.9 hPa Calm     96% 0 mm
22:49 1.7 °C 1.2 °C 998.9 hPa Calm     96% 0 mm
22:59 1.6 °C 0.9 °C 998.9 hPa Calm     96% 0 mm
23:09 1.3 °C 0.8 °C 998.9 hPa Calm     96% 0 mm
23:19 1.2 °C 0.6 °C 998.5 hPa Calm     96% 0 mm
23:29 0.8 °C 0.3 °C 998.9 hPa Calm     96% 0 mm
23:39 0.5 °C -0.2 °C 998.9 hPa Calm     95% 0 mm
23:49 0.2 °C -0.4 °C 998.9 hPa Calm     96% 0 mm
23:59 0 °C -0.6 °C 998.5 hPa Calm     96% 0 mm
jolietwx - Weather
Compliments of Weather Underground